Time;durP1;ratioP1;P1;durP2;ratioP2;P2;SDS_P1;SDS_P2;PMS_P1;PMS_P2;Temp;Humidity;BMP_temperature;BMP_pressure;BME280_temperature;BME280_humidity;BME280_pressure;Samples;Min_cycle;Max_cycle;Signal;HPM_P1;HPM_P2
2022/11/04 00:00:54;;;;;;;0.85;0.20;;;11.00;99.90;;;;;;5046808;28;20156;-82
2022/11/04 00:03:19;;;;;;;0.20;0.17;;;10.90;99.90;;;;;;5047306;28;20040;-81
2022/11/04 00:05:45;;;;;;;0.20;0.10;;;10.80;99.90;;;;;;5040746;28;20053;-85
2022/11/04 00:08:22;;;;;;;0.00;0.00;;;10.80;99.90;;;;;;5032431;28;20037;-83
2022/11/04 00:13:36;;;;;;;0.10;0.10;;;10.70;99.90;;;;;;5045320;28;20098;-82
2022/11/04 00:18:46;;;;;;;0.45;0.30;;;10.60;99.90;;;;;;5063616;28;20041;-81
2022/11/04 00:29:24;;;;;;;0.00;0.00;;;10.50;99.90;;;;;;5046357;28;20049;-82
2022/11/04 00:34:34;;;;;;;0.10;0.00;;;10.40;99.90;;;;;;5040155;28;20103;-81
2022/11/04 00:37:01;;;;;;;0.38;0.30;;;10.50;99.90;;;;;;5032880;28;20072;-82
2022/11/04 00:39:28;;;;;;;0.00;0.00;;;10.40;99.90;;;;;;5046799;28;20512;-80
2022/11/04 00:41:53;;;;;;;0.00;0.00;;;10.40;99.90;;;;;;5045181;28;20033;-80
2022/11/04 00:44:19;;;;;;;0.25;0.10;;;10.40;99.90;;;;;;5063131;28;20383;-81
2022/11/04 00:46:45;;;;;;;0.00;0.00;;;10.30;99.90;;;;;;5047749;28;20037;-81
2022/11/04 00:49:11;;;;;;;0.00;0.00;;;10.40;99.90;;;;;;5033804;28;20531;-81
2022/11/04 00:51:37;;;;;;;0.45;0.00;;;10.40;99.90;;;;;;5040681;28;20368;-81
2022/11/04 00:54:03;;;;;;;0.15;0.15;;;10.40;99.90;;;;;;5045924;28;20044;-81
2022/11/04 00:56:29;;;;;;;0.10;0.10;;;10.40;99.90;;;;;;5039587;28;20120;-82
2022/11/04 00:58:54;;;;;;;0.93;0.20;;;10.40;99.90;;;;;;5051720;28;20048;-81
2022/11/04 01:01:20;;;;;;;0.10;0.10;;;10.40;99.90;;;;;;5035287;28;20049;-81
2022/11/04 01:03:48;;;;;;;5.05;0.28;;;10.40;99.90;;;;;;5051262;28;20080;-82
2022/11/04 01:06:14;;;;;;;3.60;0.25;;;10.50;99.90;;;;;;5050999;28;20050;-87
2022/11/04 01:08:40;;;;;;;4.13;0.38;;;10.50;99.90;;;;;;5043056;28;20059;-84
2022/11/04 01:11:08;;;;;;;0.30;0.05;;;10.50;99.90;;;;;;5058894;28;20041;-82
2022/11/04 01:13:34;;;;;;;5.32;0.52;;;10.50;99.90;;;;;;5046682;28;20033;-81
2022/11/04 01:16:02;;;;;;;0.10;0.10;;;10.50;99.90;;;;;;5045988;28;20033;-82
2022/11/04 01:18:28;;;;;;;0.40;0.10;;;10.50;99.90;;;;;;5049116;28;20045;-87
2022/11/04 01:20:53;;;;;;;0.63;0.30;;;10.40;99.90;;;;;;5047626;28;20115;-82
2022/11/04 01:23:19;;;;;;;0.40;0.40;;;10.50;99.90;;;;;;5051461;28;20035;-81
2022/11/04 01:25:45;;;;;;;4.68;0.30;;;10.40;99.90;;;;;;5039200;28;20083;-83
2022/11/04 01:28:11;;;;;;;0.08;0.08;;;10.40;99.90;;;;;;5045432;28;20053;-85
2022/11/04 01:30:38;;;;;;;0.00;0.00;;;10.40;99.90;;;;;;5049837;28;20123;-81
2022/11/04 01:33:03;;;;;;;0.25;0.10;;;10.40;99.90;;;;;;5049060;28;20045;-80
2022/11/04 01:35:30;;;;;;;0.13;0.03;;;10.40;99.90;;;;;;5033903;28;20049;-81
2022/11/04 01:37:57;;;;;;;0.20;0.20;;;10.40;99.90;;;;;;5053326;28;20048;-82
2022/11/04 01:40:23;;;;;;;0.10;0.10;;;10.40;99.90;;;;;;5056184;28;20048;-82
2022/11/04 01:42:49;;;;;;;0.20;0.20;;;10.40;99.90;;;;;;5049766;28;20071;-82
2022/11/04 01:45:17;;;;;;;0.30;0.20;;;10.40;99.90;;;;;;5041502;28;20465;-82
2022/11/04 01:47:55;;;;;;;0.20;0.03;;;10.40;99.90;;;;;;5042556;28;20045;-82
2022/11/04 01:50:25;;;;;;;0.15;0.15;;;10.50;99.90;;;;;;5049207;28;20033;-82
2022/11/04 01:53:02;;;;;;;0.20;0.20;;;10.50;99.90;;;;;;5031647;28;20421;-84
2022/11/04 01:55:34;;;;;;;4.38;0.90;;;10.50;99.90;;;;;;5062995;28;20037;-82
2022/11/04 01:58:04;;;;;;;0.17;0.17;;;10.50;99.90;;;;;;5045588;28;20049;-81
2022/11/04 02:00:30;;;;;;;0.45;0.30;;;10.60;99.90;;;;;;5043498;28;20037;-82
2022/11/04 02:03:03;;;;;;;1.52;0.68;;;10.60;99.90;;;;;;5047561;28;20463;-81
2022/11/04 02:05:30;;;;;;;1.77;0.30;;;10.60;99.90;;;;;;5061892;28;20072;-82
2022/11/04 02:08:00;;;;;;;1.80;0.60;;;10.60;99.90;;;;;;5044080;28;20437;-81
2022/11/04 02:10:28;;;;;;;0.57;0.38;;;10.60;99.90;;;;;;5044774;28;20041;-85
2022/11/04 02:12:55;;;;;;;1.02;0.32;;;10.60;99.90;;;;;;5044600;28;20037;-82
2022/11/04 02:15:56;;;;;;;0.65;0.65;;;10.60;99.90;;;;;;5053041;28;20036;-82
2022/11/04 02:18:33;;;;;;;2.55;0.80;;;10.60;99.90;;;;;;5043699;28;20041;-82
2022/11/04 02:21:18;;;;;;;2.75;0.70;;;10.60;99.90;;;;;;5046023;28;20064;-82
2022/11/04 02:23:59;;;;;;;1.05;0.70;;;10.60;99.90;;;;;;5041579;28;20049;-81
2022/11/04 02:27:13;;;;;;;3.13;0.60;;;10.60;99.90;;;;;;5042843;28;20061;-82
2022/11/04 02:29:41;;;;;;;1.95;0.60;;;10.60;99.90;;;;;;5029382;28;21303;-83
2022/11/04 02:32:10;;;;;;;0.85;0.32;;;10.50;99.90;;;;;;5048179;28;20536;-83
2022/11/04 02:34:45;;;;;;;0.20;0.10;;;10.50;99.90;;;;;;5043866;28;20040;-82
2022/11/04 02:37:38;;;;;;;0.20;0.20;;;10.50;99.90;;;;;;5043514;28;20049;-84
2022/11/04 02:40:19;;;;;;;0.45;0.45;;;10.50;99.90;;;;;;5043546;28;20110;-83
2022/11/04 02:43:01;;;;;;;0.10;0.10;;;10.40;99.90;;;;;;5048681;28;20049;-83
2022/11/04 02:45:39;;;;;;;0.25;0.25;;;10.40;99.90;;;;;;5040665;28;20041;-81
2022/11/04 02:48:24;;;;;;;1.25;0.60;;;10.30;99.90;;;;;;5048995;28;20479;-82
2022/11/04 02:51:02;;;;;;;1.20;0.40;;;10.40;99.90;;;;;;5046055;28;20056;-82
2022/11/04 02:53:49;;;;;;;0.73;0.38;;;10.40;99.90;;;;;;5046735;28;20119;-82
2022/11/04 02:56:18;;;;;;;0.65;0.40;;;10.40;99.90;;;;;;5064631;28;20037;-81
2022/11/04 02:58:51;;;;;;;0.40;0.40;;;10.40;99.90;;;;;;5059024;28;20037;-85
2022/11/04 03:01:19;;;;;;;0.90;0.32;;;10.40;99.90;;;;;;5042798;28;20434;-82
2022/11/04 03:03:48;;;;;;;3.90;0.50;;;10.40;99.90;;;;;;5048066;28;20053;-82
2022/11/04 03:06:18;;;;;;;0.30;0.30;;;10.40;99.90;;;;;;5049766;28;20037;-82
2022/11/04 03:08:47;;;;;;;0.70;0.20;;;10.40;99.90;;;;;;5042386;28;20034;-81
2022/11/04 03:11:20;;;;;;;0.15;0.15;;;10.30;99.90;;;;;;5047109;28;20037;-82
2022/11/04 03:14:06;;;;;;;1.67;0.30;;;10.30;99.90;;;;;;5043251;28;20045;-82
2022/11/04 03:16:47;;;;;;;1.05;0.30;;;10.30;99.90;;;;;;5063645;28;20123;-81
2022/11/04 03:19:37;;;;;;;0.32;0.20;;;10.20;99.90;;;;;;5049015;28;20063;-82
2022/11/04 03:22:04;;;;;;;0.30;0.25;;;10.20;99.90;;;;;;5065410;28;20073;-85
2022/11/04 03:24:30;;;;;;;0.40;0.30;;;10.10;99.90;;;;;;5052513;28;20079;-82
2022/11/04 03:27:09;;;;;;;2.63;0.55;;;10.20;99.90;;;;;;5045465;28;20041;-82
2022/11/04 03:30:03;;;;;;;0.10;0.10;;;10.10;99.90;;;;;;5048726;28;20079;-81
2022/11/04 03:32:49;;;;;;;0.80;0.17;;;10.10;99.90;;;;;;5041142;28;20055;-82
2022/11/04 03:35:16;;;;;;;0.10;0.10;;;10.10;99.90;;;;;;5047291;28;20466;-82
2022/11/04 03:37:43;;;;;;;0.10;0.10;;;10.10;99.90;;;;;;5040214;28;20092;-83
2022/11/04 03:40:10;;;;;;;0.15;0.15;;;10.00;99.90;;;;;;5047474;28;20408;-82
2022/11/04 03:42:42;;;;;;;0.93;0.43;;;10.00;99.90;;;;;;5058486;28;20811;-86
2022/11/04 03:45:09;;;;;;;0.10;0.10;;;10.00;99.90;;;;;;5047530;28;20084;-82
2022/11/04 03:47:36;;;;;;;0.50;0.20;;;9.90;99.90;;;;;;5044289;28;20100;-82
2022/11/04 03:50:11;;;;;;;3.92;0.25;;;9.90;99.90;;;;;;5048657;28;20032;-82
2022/11/04 03:52:38;;;;;;;0.10;0.10;;;9.90;99.90;;;;;;5047962;28;20084;-82
2022/11/04 03:55:06;;;;;;;0.10;0.10;;;9.90;99.90;;;;;;5048978;28;20087;-81
2022/11/04 03:58:04;;;;;;;0.10;0.10;;;9.90;99.90;;;;;;5036715;28;20116;-82
2022/11/04 04:00:38;;;;;;;3.92;0.20;;;9.80;99.90;;;;;;5044798;28;20472;-82
2022/11/04 04:03:27;;;;;;;0.20;0.20;;;9.90;99.90;;;;;;5045396;28;20080;-82
2022/11/04 04:06:20;;;;;;;0.43;0.43;;;9.80;99.90;;;;;;5044541;28;20056;-84
2022/11/04 04:08:56;;;;;;;0.00;0.00;;;9.90;99.90;;;;;;5041260;28;20194;-81
2022/11/04 04:11:40;;;;;;;4.68;0.10;;;9.80;99.90;;;;;;5058691;28;20044;-82
2022/11/04 04:14:38;;;;;;;0.00;0.00;;;9.80;99.90;;;;;;5045472;28;21238;-82
2022/11/04 04:17:51;;;;;;;0.35;0.20;;;9.80;99.90;;;;;;5046372;28;20044;-82
2022/11/04 04:20:20;;;;;;;3.33;0.50;;;9.80;99.90;;;;;;5027502;28;20052;-81
2022/11/04 04:22:51;;;;;;;0.38;0.25;;;9.80;99.90;;;;;;5059104;28;20057;-83
2022/11/04 04:28:03;;;;;;;0.00;0.00;;;9.80;99.90;;;;;;5046332;28;20044;-82
2022/11/04 04:30:29;;;;;;;0.00;0.00;;;9.80;99.90;;;;;;5031441;28;20045;-81
2022/11/04 04:33:04;;;;;;;0.20;0.00;;;9.80;99.90;;;;;;5047455;28;20091;-82
2022/11/04 04:35:43;;;;;;;0.25;0.22;;;9.80;99.90;;;;;;5045572;28;20052;-82
2022/11/04 04:46:44;;;;;;;5.18;0.35;;;9.70;99.90;;;;;;5058985;28;20147;-83
2022/11/04 04:49:10;;;;;;;0.60;0.30;;;9.70;99.90;;;;;;5042832;28;20048;-82
2022/11/04 04:51:41;;;;;;;0.57;0.22;;;9.60;99.90;;;;;;5056698;28;20376;-82
2022/11/04 04:54:06;;;;;;;0.00;0.00;;;9.60;99.90;;;;;;5048980;28;20182;-83
2022/11/04 04:56:32;;;;;;;0.52;0.10;;;9.60;99.90;;;;;;5045098;28;20115;-82
2022/11/04 04:58:58;;;;;;;0.20;0.20;;;9.50;99.90;;;;;;5045570;28;20049;-84
2022/11/04 05:01:24;;;;;;;7.07;0.25;;;9.40;99.90;;;;;;5058257;28;20049;-83
2022/11/04 05:03:49;;;;;;;0.00;0.00;;;9.40;99.90;;;;;;5064433;28;20041;-82
2022/11/04 05:06:15;;;;;;;2.13;0.28;;;9.30;99.90;;;;;;5038461;28;20055;-83
2022/11/04 05:08:41;;;;;;;0.93;0.20;;;9.30;99.90;;;;;;5016559;28;20041;-84
2022/11/04 05:11:06;;;;;;;0.28;0.28;;;9.30;99.90;;;;;;5042816;28;20044;-82
2022/11/04 05:13:32;;;;;;;0.10;0.10;;;9.20;99.90;;;;;;5043334;28;20049;-82
2022/11/04 05:16:06;;;;;;;0.00;0.00;;;9.20;99.90;;;;;;5030133;28;20036;-83
2022/11/04 05:18:32;;;;;;;0.00;0.00;;;9.20;99.90;;;;;;5019444;28;20080;-82
2022/11/04 05:20:57;;;;;;;1.05;0.43;;;9.20;99.90;;;;;;5054060;28;20139;-82
2022/11/04 05:23:23;;;;;;;0.00;0.00;;;9.10;99.90;;;;;;5043746;28;20036;-82
2022/11/04 05:25:49;;;;;;;0.38;0.30;;;9.10;99.90;;;;;;5051038;28;20540;-83
2022/11/04 05:28:15;;;;;;;0.10;0.10;;;9.10;99.90;;;;;;5041694;28;20126;-83
2022/11/04 05:30:40;;;;;;;0.10;0.10;;;9.10;99.90;;;;;;5040167;28;20053;-81
2022/11/04 05:33:06;;;;;;;0.00;0.00;;;8.90;99.90;;;;;;5046405;28;20128;-82
2022/11/04 05:35:33;;;;;;;1.20;0.10;;;9.00;99.90;;;;;;5045906;28;20091;-82
2022/11/04 05:37:59;;;;;;;0.15;0.08;;;8.90;99.90;;;;;;5028242;28;20057;-85
2022/11/04 05:40:24;;;;;;;0.13;0.13;;;8.80;99.90;;;;;;5049955;28;20051;-82
2022/11/04 05:42:50;;;;;;;0.65;0.22;;;8.70;99.90;;;;;;5052540;28;20040;-83
2022/11/04 05:45:16;;;;;;;0.45;0.17;;;8.70;99.90;;;;;;5046529;28;20053;-81
2022/11/04 05:47:42;;;;;;;0.10;0.10;;;8.70;99.90;;;;;;5063525;28;20041;-83
2022/11/04 05:50:08;;;;;;;1.02;0.38;;;8.60;99.90;;;;;;5032328;28;20049;-84
2022/11/04 05:52:33;;;;;;;0.00;0.00;;;8.60;99.90;;;;;;5037339;28;20468;-82
2022/11/04 05:54:59;;;;;;;0.52;0.20;;;8.60;99.90;;;;;;5052120;28;20032;-82
2022/11/04 05:57:25;;;;;;;0.28;0.10;;;8.60;99.90;;;;;;5049459;28;20052;-82
2022/11/04 05:59:50;;;;;;;0.08;0.08;;;8.50;99.90;;;;;;5018735;28;20041;-82
2022/11/04 06:02:16;;;;;;;0.17;0.17;;;8.60;99.90;;;;;;5026252;28;20073;-81
2022/11/04 06:04:42;;;;;;;0.35;0.35;;;8.50;99.90;;;;;;5027750;28;20045;-82
2022/11/04 06:07:08;;;;;;;0.55;0.30;;;8.60;99.90;;;;;;5054046;28;20037;-82
2022/11/04 06:09:40;;;;;;;0.20;0.10;;;8.50;99.90;;;;;;5065334;28;20084;-83
2022/11/04 06:12:07;;;;;;;0.20;0.20;;;8.50;99.90;;;;;;5043842;28;20033;-82
2022/11/04 06:14:33;;;;;;;0.70;0.35;;;8.50;99.90;;;;;;5053040;28;20527;-82
2022/11/04 06:16:59;;;;;;;0.52;0.15;;;8.50;99.90;;;;;;5048071;28;20100;-83
2022/11/04 06:19:25;;;;;;;0.10;0.10;;;8.50;99.90;;;;;;5035605;28;20045;-82
2022/11/04 06:21:51;;;;;;;1.13;0.50;;;8.50;99.90;;;;;;5032695;28;20059;-82
2022/11/04 06:24:17;;;;;;;0.88;0.80;;;8.50;99.90;;;;;;5047735;28;20042;-81
2022/11/04 06:26:42;;;;;;;0.13;0.13;;;8.60;99.90;;;;;;5051766;28;20048;-81
2022/11/04 06:29:08;;;;;;;0.60;0.38;;;8.60;99.90;;;;;;5031455;28;20067;-81
2022/11/04 06:31:34;;;;;;;0.10;0.10;;;8.60;99.90;;;;;;5050464;28;20135;-82
2022/11/04 06:34:00;;;;;;;0.10;0.10;;;8.60;99.90;;;;;;5037779;28;20095;-82
2022/11/04 06:36:26;;;;;;;0.08;0.05;;;8.60;99.90;;;;;;5038311;28;20053;-82
2022/11/04 06:38:51;;;;;;;0.10;0.10;;;8.60;99.90;;;;;;5053600;28;20051;-81
2022/11/04 06:41:17;;;;;;;2.30;0.20;;;8.60;99.90;;;;;;5046685;28;20400;-81
2022/11/04 06:43:43;;;;;;;39.63;15.18;;;8.70;99.90;;;;;;5057872;28;20091;-82
2022/11/04 06:46:41;;;;;;;0.10;0.10;;;8.60;99.90;;;;;;5035996;28;20037;-82
2022/11/04 06:49:14;;;;;;;0.13;0.13;;;8.60;99.90;;;;;;5049043;28;20049;-81
2022/11/04 06:51:40;;;;;;;0.20;0.10;;;8.60;99.90;;;;;;5050567;28;20052;-82
2022/11/04 06:54:06;;;;;;;0.13;0.13;;;8.60;99.90;;;;;;5034470;28;20037;-81
2022/11/04 06:56:34;;;;;;;0.85;0.30;;;8.70;99.90;;;;;;5052916;28;20041;-82
2022/11/04 06:59:00;;;;;;;1.35;1.05;;;8.60;99.90;;;;;;5028582;28;20186;-83
2022/11/04 07:01:28;;;;;;;0.40;0.40;;;8.60;99.90;;;;;;5050641;28;20076;-82
2022/11/04 07:03:56;;;;;;;0.30;0.30;;;8.50;99.90;;;;;;5051411;28;20526;-81
2022/11/04 07:06:22;;;;;;;20.40;1.23;;;8.60;99.90;;;;;;5049521;28;20048;-81
2022/11/04 07:08:49;;;;;;;0.75;0.32;;;8.50;99.90;;;;;;5048375;28;20237;-82
2022/11/04 07:11:18;;;;;;;1.52;0.40;;;8.60;99.90;;;;;;5031679;28;20037;-82
2022/11/04 07:13:44;;;;;;;0.85;0.40;;;8.60;99.90;;;;;;5062124;28;20045;-81
2022/11/04 07:16:10;;;;;;;0.95;0.63;;;8.60;99.90;;;;;;5051803;28;20044;-82
2022/11/04 07:18:36;;;;;;;0.75;0.68;;;8.60;99.90;;;;;;5031470;28;20511;-81
2022/11/04 07:21:02;;;;;;;3.95;2.70;;;8.70;99.90;;;;;;5037220;28;20081;-82
2022/11/04 07:23:28;;;;;;;0.50;0.50;;;8.70;99.90;;;;;;5045659;28;20040;-82
2022/11/04 07:25:59;;;;;;;5.10;1.88;;;8.70;99.90;;;;;;5053405;28;20041;-82
2022/11/04 07:28:25;;;;;;;1.58;1.17;;;8.70;99.90;;;;;;5051095;28;20041;-82
2022/11/04 07:30:50;;;;;;;2.47;1.80;;;8.80;99.90;;;;;;5046506;28;20041;-82
2022/11/04 07:33:17;;;;;;;5.43;2.08;;;8.90;99.90;;;;;;5065650;28;20090;-82
2022/11/04 07:35:44;;;;;;;3.40;1.48;;;8.90;99.90;;;;;;5037948;28;20472;-82
2022/11/04 07:38:10;;;;;;;5.15;1.77;;;9.00;99.90;;;;;;5048816;28;20552;-82
2022/11/04 07:40:36;;;;;;;1.65;1.38;;;9.10;99.90;;;;;;5046637;28;20125;-82
2022/11/04 07:43:02;;;;;;;1.27;1.10;;;9.10;99.90;;;;;;5033851;28;20041;-82
2022/11/04 07:45:28;;;;;;;3.42;1.83;;;9.20;99.90;;;;;;5019244;28;20190;-82
2022/11/04 07:47:53;;;;;;;2.40;1.42;;;9.20;99.90;;;;;;5031381;28;20339;-82
2022/11/04 07:50:19;;;;;;;3.55;1.42;;;9.20;99.90;;;;;;5044082;28;20394;-82
2022/11/04 07:52:44;;;;;;;2.85;1.70;;;9.30;99.90;;;;;;5025891;28;20034;-82
2022/11/04 07:55:12;;;;;;;2.88;2.13;;;9.30;99.90;;;;;;5046494;28;20036;-83
2022/11/04 07:57:38;;;;;;;8.85;1.75;;;9.40;99.90;;;;;;5047937;28;20114;-82
2022/11/04 08:00:08;;;;;;;3.97;2.45;;;9.40;99.90;;;;;;5050807;28;20044;-84
2022/11/04 08:02:34;;;;;;;3.85;1.23;;;9.40;99.90;;;;;;5047753;28;20494;-82
2022/11/04 08:04:59;;;;;;;3.22;1.73;;;9.50;99.90;;;;;;5049652;28;20041;-83
2022/11/04 08:07:25;;;;;;;21.85;7.72;;;9.50;99.90;;;;;;5028174;28;20037;-83
2022/11/04 08:09:51;;;;;;;16.48;2.97;;;9.60;99.90;;;;;;5034640;28;20045;-83
2022/11/04 08:12:16;;;;;;;2.70;1.58;;;9.60;99.90;;;;;;5046974;28;20061;-82
2022/11/04 08:14:42;;;;;;;5.38;1.67;;;9.70;99.90;;;;;;5045688;28;20463;-83
2022/11/04 08:17:08;;;;;;;4.55;1.55;;;9.70;99.90;;;;;;5041240;28;20277;-82
2022/11/04 08:19:34;;;;;;;3.00;1.98;;;9.80;99.90;;;;;;5031603;28;20041;-82
2022/11/04 08:22:00;;;;;;;4.45;1.55;;;9.70;99.90;;;;;;5028139;28;20099;-83
2022/11/04 08:24:26;;;;;;;3.00;2.15;;;9.70;99.90;;;;;;5049670;28;20113;-83
2022/11/04 08:26:52;;;;;;;5.68;2.13;;;9.70;99.90;;;;;;5059736;28;20033;-82
2022/11/04 08:29:17;;;;;;;6.78;2.63;;;9.60;99.90;;;;;;5059584;28;20037;-82
2022/11/04 08:31:43;;;;;;;6.00;2.58;;;9.60;99.90;;;;;;5049429;28;21086;-83
2022/11/04 08:34:17;;;;;;;4.00;1.80;;;9.60;99.90;;;;;;5035402;28;20044;-85
2022/11/04 08:36:44;;;;;;;4.47;2.38;;;9.60;99.90;;;;;;5062848;28;20051;-81
2022/11/04 08:39:10;;;;;;;2.63;1.60;;;9.60;99.90;;;;;;5030329;28;20208;-85
2022/11/04 08:41:37;;;;;;;4.00;2.67;;;9.60;99.90;;;;;;5047336;28;20060;-83
2022/11/04 08:44:04;;;;;;;6.68;2.72;;;9.60;99.90;;;;;;5053332;28;20162;-82
2022/11/04 08:46:36;;;;;;;3.97;2.33;;;9.60;99.90;;;;;;5062618;28;20130;-83
2022/11/04 08:49:03;;;;;;;4.65;2.67;;;9.60;99.90;;;;;;5064558;28;20056;-82
2022/11/04 08:51:31;;;;;;;8.07;3.92;;;9.50;99.90;;;;;;5060480;28;20148;-83
2022/11/04 08:53:58;;;;;;;3.65;1.92;;;9.60;99.90;;;;;;5045924;28;20424;-83
2022/11/04 08:56:30;;;;;;;4.97;2.40;;;9.50;99.90;;;;;;5050609;28;20049;-83
2022/11/04 08:58:58;;;;;;;4.10;2.80;;;9.70;99.90;;;;;;5047938;28;20479;-82
2022/11/04 09:01:25;;;;;;;8.05;3.20;;;9.80;99.90;;;;;;5061824;28;20049;-83
2022/11/04 09:03:52;;;;;;;4.45;2.58;;;9.90;99.90;;;;;;5041343;28;20144;-84
2022/11/04 09:06:24;;;;;;;4.93;2.22;;;10.10;99.90;;;;;;5040104;28;20037;-83
2022/11/04 09:08:51;;;;;;;11.20;3.97;;;10.20;99.90;;;;;;5063561;28;20045;-83
2022/11/04 09:11:17;;;;;;;10.15;4.93;;;10.30;99.90;;;;;;5046483;28;20037;-83
2022/11/04 09:13:44;;;;;;;11.23;3.58;;;10.40;99.90;;;;;;5043029;28;20132;-84
2022/11/04 09:16:12;;;;;;;7.05;3.67;;;10.50;99.90;;;;;;5052156;28;20045;-83
2022/11/04 09:18:38;;;;;;;9.93;4.13;;;10.50;99.90;;;;;;5060627;28;20373;-85
2022/11/04 09:21:06;;;;;;;9.60;4.80;;;10.60;99.90;;;;;;5033347;28;20053;-83
2022/11/04 09:23:32;;;;;;;13.30;6.50;;;10.60;99.90;;;;;;5047641;28;20073;-83
2022/11/04 09:26:03;;;;;;;11.43;4.68;;;10.60;99.90;;;;;;5044687;28;20068;-84
2022/11/04 09:28:30;;;;;;;5.90;3.35;;;10.70;99.90;;;;;;5054765;28;20029;-84
2022/11/04 09:30:55;;;;;;;13.50;4.90;;;10.70;99.90;;;;;;5047206;28;20037;-82
2022/11/04 09:33:21;;;;;;;11.18;5.30;;;10.70;99.90;;;;;;5046725;28;20049;-84
2022/11/04 09:35:54;;;;;;;7.13;4.35;;;10.90;99.90;;;;;;5049041;28;20049;-82
2022/11/04 09:38:20;;;;;;;10.73;4.88;;;11.00;99.90;;;;;;5040681;28;20472;-83
2022/11/04 09:40:47;;;;;;;12.32;6.03;;;11.10;99.90;;;;;;5022311;28;20044;-83
2022/11/04 09:43:32;;;;;;;12.57;5.43;;;11.20;99.90;;;;;;5022386;28;20127;-83
2022/11/04 09:45:59;;;;;;;10.60;5.18;;;11.20;99.90;;;;;;5045469;28;20049;-83
2022/11/04 09:48:30;;;;;;;11.80;4.80;;;11.10;99.90;;;;;;5064123;28;20033;-83
2022/11/04 09:50:59;;;;;;;10.57;4.88;;;11.00;99.90;;;;;;5044036;28;20053;-84
2022/11/04 09:53:27;;;;;;;11.90;4.35;;;10.90;99.90;;;;;;5041160;28;20433;-83
2022/11/04 09:56:12;;;;;;;10.82;4.45;;;10.90;99.90;;;;;;5040203;28;20187;-83
2022/11/04 09:58:38;;;;;;;8.88;4.28;;;10.80;99.90;;;;;;5027852;28;20047;-84
2022/11/04 10:01:37;;;;;;;11.95;6.05;;;10.80;99.90;;;;;;5028113;28;20049;-84
2022/11/04 10:04:22;;;;;;;12.43;3.90;;;10.80;99.90;;;;;;5056234;28;20033;-83
2022/11/04 10:07:02;;;;;;;6.97;2.97;;;10.80;99.90;;;;;;5044518;28;20055;-85
2022/11/04 10:09:50;;;;;;;11.48;4.03;;;10.80;99.90;;;;;;5043326;28;20633;-85
2022/11/04 10:13:01;;;;;;;12.25;4.43;;;10.70;99.90;;;;;;5039330;28;20038;-84
2022/11/04 10:15:40;;;;;;;9.20;4.40;;;10.70;99.90;;;;;;5020057;28;20430;-83
2022/11/04 10:18:33;;;;;;;12.07;6.10;;;10.70;99.90;;;;;;5044802;28;20056;-85
2022/11/04 10:21:17;;;;;;;;;;;10.60;99.90;;;;;;5034808;28;20128;-88
2022/11/04 10:23:59;;;;;;;6.63;3.88;;;10.60;99.90;;;;;;5062680;28;20359;-83
2022/11/04 10:26:35;;;;;;;7.72;4.65;;;10.60;99.90;;;;;;5059654;28;20063;-85
2022/11/04 10:29:11;;;;;;;7.88;4.93;;;10.70;99.90;;;;;;5064639;28;20047;-83
2022/11/04 10:31:38;;;;;;;10.45;4.47;;;10.80;99.90;;;;;;5043680;28;20059;-84
2022/11/04 10:34:23;;;;;;;10.43;4.70;;;10.80;99.90;;;;;;5042776;28;20040;-86
2022/11/04 10:36:56;;;;;;;10.10;5.43;;;10.90;99.90;;;;;;5051438;28;20306;-83
2022/11/04 10:39:36;;;;;;;10.93;4.47;;;11.00;99.90;;;;;;5035825;28;20395;-85
2022/11/04 10:42:08;;;;;;;14.45;6.30;;;11.10;99.90;;;;;;5052788;28;20048;-83
2022/11/04 10:44:40;;;;;;;12.00;4.85;;;11.30;99.90;;;;;;5029554;28;20384;-87
2022/11/04 10:47:13;;;;;;;;;;;11.50;99.90;;;;;;5067169;28;20029;-83
2022/11/04 10:49:56;;;;;;;14.93;5.28;;;11.70;99.90;;;;;;5071379;28;19921;-82
2022/11/04 10:52:25;;;;;;;14.18;5.80;;;11.80;99.90;;;;;;5044469;28;20372;-83
2022/11/04 10:54:56;;;;;;;16.25;7.68;;;11.80;99.90;;;;;;5037249;28;20071;-84
2022/11/04 11:00:36;;;;;;;18.65;6.15;;;12.10;99.90;;;;;;5037823;28;20091;-83
2022/11/04 11:03:08;;;;;;;13.35;4.85;;;12.10;99.90;;;;;;5053174;28;20387;-83
2022/11/04 11:05:52;;;;;;;10.60;6.25;;;12.10;99.90;;;;;;5053959;28;20124;-84
2022/11/04 11:08:39;;;;;;;11.30;6.05;;;12.20;99.90;;;;;;5042707;28;20049;-83
2022/11/04 11:11:11;;;;;;;10.93;5.28;;;12.20;99.90;;;;;;5063211;28;20037;-84
2022/11/04 11:13:42;;;;;;;12.95;6.68;;;12.10;99.90;;;;;;5037926;28;20445;-83
2022/11/04 11:16:20;;;;;;;15.73;5.68;;;12.00;99.90;;;;;;5042065;28;20210;-83
2022/11/04 11:19:20;;;;;;;20.60;7.13;;;11.90;99.90;;;;;;5070301;28;20124;-83
2022/11/04 11:25:25;;;;;;;;;;;;;;;;;;;;;
2022/11/04 11:28:20;;;;;;;12.68;5.47;;;12.20;99.90;;;;;;5032278;28;20599;-84
2022/11/04 11:30:46;;;;;;;14.73;5.55;;;12.30;99.90;;;;;;5032845;28;20046;-84
2022/11/04 11:33:22;;;;;;;13.23;4.70;;;12.30;99.90;;;;;;5032585;28;20064;-84
2022/11/04 11:35:55;;;;;;;10.35;5.65;;;12.40;99.90;;;;;;5034944;28;20079;-85
2022/11/04 11:38:26;;;;;;;9.88;5.30;;;12.50;99.90;;;;;;5053068;28;20057;-85
2022/11/04 11:41:02;;;;;;;10.70;4.63;;;12.60;99.90;;;;;;5036935;28;20094;-85
2022/11/04 11:43:32;;;;;;;8.95;4.47;;;12.70;99.90;;;;;;5033832;28;20054;-83
2022/11/04 11:45:59;;;;;;;12.75;5.40;;;12.70;99.90;;;;;;5042627;28;20131;-84
2022/11/04 11:48:31;;;;;;;12.43;4.43;;;12.80;99.90;;;;;;5052911;28;20057;-83
2022/11/04 11:50:58;;;;;;;16.10;3.88;;;12.80;99.90;;;;;;5045939;28;20091;-83
2022/11/04 11:53:28;;;;;;;10.35;4.57;;;12.90;99.90;;;;;;5032926;28;20481;-83
2022/11/04 11:56:23;;;;;;;8.57;4.18;;;13.00;99.90;;;;;;5046783;28;20045;-83
2022/11/04 11:58:54;;;;;;;5.95;3.63;;;13.20;99.90;;;;;;5047851;28;20057;-84
2022/11/04 12:01:37;;;;;;;10.43;5.15;;;13.30;99.90;;;;;;5052835;28;20052;-84
2022/11/04 12:04:03;;;;;;;7.80;3.65;;;13.50;99.90;;;;;;5052757;28;20404;-84
2022/11/04 12:07:02;;;;;;;7.00;3.72;;;13.60;99.90;;;;;;5025879;28;20404;-84
2022/11/04 12:09:40;;;;;;;4.07;2.33;;;13.70;99.90;;;;;;5016423;28;20059;-83
2022/11/04 12:12:15;;;;;;;3.92;2.00;;;13.70;99.90;;;;;;5052083;28;20048;-83
2022/11/04 12:14:40;;;;;;;5.45;2.35;;;13.60;99.90;;;;;;5052348;28;20385;-83
2022/11/04 12:17:31;;;;;;;2.90;1.73;;;13.50;99.90;;;;;;5036388;28;20056;-83
2022/11/04 12:20:04;;;;;;;5.50;1.67;;;13.50;99.90;;;;;;5052612;28;20099;-83
2022/11/04 12:22:45;;;;;;;6.53;1.67;;;13.40;99.90;;;;;;5052143;28;20138;-83
2022/11/04 12:25:10;;;;;;;11.60;3.25;;;13.40;99.90;;;;;;5060259;28;20434;-83
2022/11/04 12:27:49;;;;;;;5.15;1.30;;;13.40;99.90;;;;;;5062158;28;20042;-83
2022/11/04 12:30:24;;;;;;;5.70;1.40;;;13.40;99.90;;;;;;5032999;28;20473;-83
2022/11/04 12:32:53;;;;;;;2.00;1.05;;;13.50;99.90;;;;;;5032117;28;20560;-83
2022/11/04 12:35:25;;;;;;;4.47;1.35;;;13.50;99.90;;;;;;5032432;28;20050;-83
2022/11/04 12:38:12;;;;;;;2.33;1.20;;;13.50;99.90;;;;;;5036793;28;20085;-83
2022/11/04 12:40:58;;;;;;;3.85;1.77;;;13.40;99.90;;;;;;5043713;28;20128;-83
2022/11/04 12:43:23;;;;;;;3.35;2.72;;;13.30;99.90;;;;;;5052170;28;20053;-83
2022/11/04 12:46:07;;;;;;;1.13;0.95;;;13.40;99.90;;;;;;5034630;28;20399;-82
2022/11/04 12:49:00;;;;;;;3.95;1.38;;;13.40;99.90;;;;;;5042558;28;20049;-82
2022/11/04 12:51:26;;;;;;;5.15;1.55;;;13.40;99.90;;;;;;5051826;28;20411;-82
2022/11/04 12:54:03;;;;;;;3.22;1.02;;;13.40;99.90;;;;;;5035071;28;20041;-82
2022/11/04 12:56:37;;;;;;;1.65;1.20;;;13.30;99.90;;;;;;5052151;28;20530;-81
2022/11/04 12:59:41;;;;;;;4.25;0.63;;;13.00;99.90;;;;;;5061964;28;20041;-82
2022/11/04 13:02:25;;;;;;;5.78;0.57;;;12.70;99.90;;;;;;5064198;28;20029;-84
2022/11/04 13:05:12;;;;;;;1.30;0.47;;;12.20;99.90;;;;;;5034564;28;20084;-83
2022/11/04 13:08:08;;;;;;;0.85;0.73;;;11.80;99.90;;;;;;5043649;28;20056;-87
2022/11/04 13:11:06;;;;;;;2.47;0.60;;;11.40;99.90;;;;;;5025127;28;20061;-83
2022/11/04 13:13:35;;;;;;;0.75;0.75;;;11.10;99.90;;;;;;5050525;28;20061;-83
2022/11/04 13:16:07;;;;;;;0.30;0.30;;;10.90;99.90;;;;;;5066542;28;20041;-83
2022/11/04 13:18:38;;;;;;;0.90;0.20;;;10.80;99.90;;;;;;5051339;28;20048;-83
2022/11/04 13:21:12;;;;;;;1.08;0.50;;;10.60;99.90;;;;;;5050674;28;20496;-83
2022/11/04 13:23:51;;;;;;;2.25;1.00;;;10.50;99.90;;;;;;5050726;28;20057;-83
2022/11/04 13:26:17;;;;;;;1.80;1.20;;;10.50;99.90;;;;;;5051730;28;20045;-82
2022/11/04 13:28:47;;;;;;;1.90;1.00;;;10.60;99.90;;;;;;5051073;28;20182;-81
2022/11/04 13:31:18;;;;;;;0.70;0.65;;;10.60;99.90;;;;;;5051493;28;20053;-83
2022/11/04 13:34:04;;;;;;;0.40;0.40;;;10.60;99.90;;;;;;5034120;28;20042;-82
2022/11/04 13:37:01;;;;;;;3.30;0.40;;;10.60;99.90;;;;;;5031758;28;20037;-83
2022/11/04 13:39:47;;;;;;;3.00;0.47;;;10.70;99.90;;;;;;5060197;28;20147;-83
2022/11/04 13:42:34;;;;;;;4.82;0.60;;;10.70;99.90;;;;;;5051489;28;20045;-82
2022/11/04 13:45:11;;;;;;;0.20;0.20;;;10.70;99.90;;;;;;5031729;28;20065;-83
2022/11/04 13:47:45;;;;;;;0.85;0.30;;;10.60;99.90;;;;;;5033488;28;20049;-82
2022/11/04 13:50:26;;;;;;;0.32;0.25;;;10.70;99.90;;;;;;5034802;28;20049;-83